sensor_id;sensor_type;location;lat;lon;timestamp;P1;durP1;ratioP1;P2;durP2;ratioP2
49820;SDS011;36893;52.520;13.450;2022-09-12T00:09:04;1.87;;;0.83;;
49820;SDS011;36893;52.520;13.450;2022-09-12T00:19:09;4.25;;;1.25;;
49820;SDS011;36893;52.520;13.450;2022-09-12T00:29:17;1.05;;;0.70;;
49820;SDS011;36893;52.520;13.450;2022-09-12T00:39:20;1.80;;;0.90;;
49820;SDS011;36893;52.520;13.450;2022-09-12T00:59:33;0.82;;;0.65;;
49820;SDS011;36893;52.520;13.450;2022-09-12T01:09:41;1.30;;;0.77;;
49820;SDS011;36893;52.520;13.450;2022-09-12T01:19:48;1.63;;;0.80;;
49820;SDS011;36893;52.520;13.450;2022-09-12T01:40:11;1.23;;;0.88;;
49820;SDS011;36893;52.520;13.450;2022-09-12T01:50:31;0.60;;;0.60;;
49820;SDS011;36893;52.520;13.450;2022-09-12T02:00:45;1.02;;;0.90;;
49820;SDS011;36893;52.520;13.450;2022-09-12T02:11:10;0.98;;;0.63;;
49820;SDS011;36893;52.520;13.450;2022-09-12T02:21:11;1.47;;;0.73;;
49820;SDS011;36893;52.520;13.450;2022-09-12T02:31:31;2.03;;;0.80;;
49820;SDS011;36893;52.520;13.450;2022-09-12T02:41:39;1.08;;;0.70;;
49820;SDS011;36893;52.520;13.450;2022-09-12T02:51:40;1.03;;;0.50;;
49820;SDS011;36893;52.520;13.450;2022-09-12T03:12:12;0.50;;;0.50;;
49820;SDS011;36893;52.520;13.450;2022-09-12T03:22:33;2.70;;;0.90;;
49820;SDS011;36893;52.520;13.450;2022-09-12T03:32:49;1.33;;;0.80;;
49820;SDS011;36893;52.520;13.450;2022-09-12T03:42:52;0.95;;;0.63;;
49820;SDS011;36893;52.520;13.450;2022-09-12T03:52:52;2.23;;;0.70;;
49820;SDS011;36893;52.520;13.450;2022-09-12T04:02:54;0.70;;;0.60;;
49820;SDS011;36893;52.520;13.450;2022-09-12T04:12:56;1.93;;;0.80;;
49820;SDS011;36893;52.520;13.450;2022-09-12T04:22:56;0.70;;;0.60;;
49820;SDS011;36893;52.520;13.450;2022-09-12T04:32:57;1.93;;;0.77;;
49820;SDS011;36893;52.520;13.450;2022-09-12T04:42:58;0.60;;;0.60;;
49820;SDS011;36893;52.520;13.450;2022-09-12T04:52:58;2.17;;;0.70;;
49820;SDS011;36893;52.520;13.450;2022-09-12T05:02:59;3.30;;;0.80;;
49820;SDS011;36893;52.520;13.450;2022-09-12T05:13:00;1.27;;;0.70;;
49820;SDS011;36893;52.520;13.450;2022-09-12T05:23:00;3.23;;;0.90;;
49820;SDS011;36893;52.520;13.450;2022-09-12T05:33:01;1.37;;;0.70;;
49820;SDS011;36893;52.520;13.450;2022-09-12T05:43:02;2.70;;;1.00;;
49820;SDS011;36893;52.520;13.450;2022-09-12T05:53:03;3.80;;;1.25;;
49820;SDS011;36893;52.520;13.450;2022-09-12T06:03:04;2.50;;;0.95;;
49820;SDS011;36893;52.520;13.450;2022-09-12T06:13:05;4.20;;;1.07;;
49820;SDS011;36893;52.520;13.450;2022-09-12T06:23:05;3.85;;;1.13;;
49820;SDS011;36893;52.520;13.450;2022-09-12T06:33:06;4.50;;;2.00;;
49820;SDS011;36893;52.520;13.450;2022-09-12T06:43:06;5.57;;;2.37;;
49820;SDS011;36893;52.520;13.450;2022-09-12T06:53:07;5.00;;;2.07;;
49820;SDS011;36893;52.520;13.450;2022-09-12T07:03:08;6.22;;;2.15;;
49820;SDS011;36893;52.520;13.450;2022-09-12T07:13:09;5.28;;;2.38;;
49820;SDS011;36893;52.520;13.450;2022-09-12T07:23:10;4.47;;;2.15;;
49820;SDS011;36893;52.520;13.450;2022-09-12T07:33:11;4.97;;;2.50;;
49820;SDS011;36893;52.520;13.450;2022-09-12T07:43:12;2.95;;;2.03;;
49820;SDS011;36893;52.520;13.450;2022-09-12T07:53:12;3.70;;;2.20;;
49820;SDS011;36893;52.520;13.450;2022-09-12T08:03:13;5.10;;;1.70;;
49820;SDS011;36893;52.520;13.450;2022-09-12T08:13:14;4.22;;;2.10;;
49820;SDS011;36893;52.520;13.450;2022-09-12T08:23:14;2.13;;;1.33;;
49820;SDS011;36893;52.520;13.450;2022-09-12T08:33:17;1.55;;;1.00;;
49820;SDS011;36893;52.520;13.450;2022-09-12T08:53:40;4.47;;;1.40;;
49820;SDS011;36893;52.520;13.450;2022-09-12T09:03:51;4.40;;;1.00;;
49820;SDS011;36893;52.520;13.450;2022-09-12T09:14:23;1.85;;;1.00;;
49820;SDS011;36893;52.520;13.450;2022-09-12T09:24:49;2.65;;;1.30;;
49820;SDS011;36893;52.520;13.450;2022-09-12T09:34:55;12.32;;;1.63;;
49820;SDS011;36893;52.520;13.450;2022-09-12T09:44:56;1.17;;;0.70;;
49820;SDS011;36893;52.520;13.450;2022-09-12T09:54:59;2.33;;;0.90;;
49820;SDS011;36893;52.520;13.450;2022-09-12T10:05:01;3.40;;;0.95;;
49820;SDS011;36893;52.520;13.450;2022-09-12T10:15:04;1.40;;;0.70;;
49820;SDS011;36893;52.520;13.450;2022-09-12T10:25:20;7.38;;;1.00;;
49820;SDS011;36893;52.520;13.450;2022-09-12T10:35:28;1.52;;;0.60;;
49820;SDS011;36893;52.520;13.450;2022-09-12T10:45:42;3.35;;;0.60;;
49820;SDS011;36893;52.520;13.450;2022-09-12T11:06:21;1.98;;;0.70;;
49820;SDS011;36893;52.520;13.450;2022-09-12T11:16:53;5.00;;;0.90;;
49820;SDS011;36893;52.520;13.450;2022-09-12T11:27:11;1.83;;;1.00;;
49820;SDS011;36893;52.520;13.450;2022-09-12T11:37:40;0.82;;;0.70;;
49820;SDS011;36893;52.520;13.450;2022-09-12T11:48:05;1.58;;;1.00;;
49820;SDS011;36893;52.520;13.450;2022-09-12T11:58:12;5.82;;;2.53;;
49820;SDS011;36893;52.520;13.450;2022-09-12T12:08:13;1.60;;;0.82;;
49820;SDS011;36893;52.520;13.450;2022-09-12T12:38:41;2.28;;;1.05;;
49820;SDS011;36893;52.520;13.450;2022-09-12T12:48:43;2.00;;;1.00;;
49820;SDS011;36893;52.520;13.450;2022-09-12T12:59:26;8.23;;;2.55;;
49820;SDS011;36893;52.520;13.450;2022-09-12T13:09:36;14.98;;;6.35;;
49820;SDS011;36893;52.520;13.450;2022-09-12T13:19:43;5.82;;;3.05;;
49820;SDS011;36893;52.520;13.450;2022-09-12T13:29:45;9.13;;;4.68;;
49820;SDS011;36893;52.520;13.450;2022-09-12T13:39:46;4.13;;;2.20;;
49820;SDS011;36893;52.520;13.450;2022-09-12T13:50:19;11.75;;;4.32;;
49820;SDS011;36893;52.520;13.450;2022-09-12T14:00:23;12.60;;;5.53;;
49820;SDS011;36893;52.520;13.450;2022-09-12T14:20:34;10.90;;;2.97;;
49820;SDS011;36893;52.520;13.450;2022-09-12T14:30:37;3.00;;;1.55;;
49820;SDS011;36893;52.520;13.450;2022-09-12T14:40:44;5.53;;;1.52;;
49820;SDS011;36893;52.520;13.450;2022-09-12T14:50:49;3.08;;;1.38;;
49820;SDS011;36893;52.520;13.450;2022-09-12T15:10:58;1.92;;;1.00;;
49820;SDS011;36893;52.520;13.450;2022-09-12T15:21:00;4.68;;;1.58;;
49820;SDS011;36893;52.520;13.450;2022-09-12T15:31:05;3.60;;;1.08;;
49820;SDS011;36893;52.520;13.450;2022-09-12T15:41:19;3.28;;;1.25;;
49820;SDS011;36893;52.520;13.450;2022-09-12T15:51:22;2.72;;;1.05;;
49820;SDS011;36893;52.520;13.450;2022-09-12T16:01:22;5.63;;;0.90;;
49820;SDS011;36893;52.520;13.450;2022-09-12T16:11:24;7.13;;;1.60;;
49820;SDS011;36893;52.520;13.450;2022-09-12T16:21:26;11.43;;;1.52;;
49820;SDS011;36893;52.520;13.450;2022-09-12T16:31:27;4.10;;;1.47;;
49820;SDS011;36893;52.520;13.450;2022-09-12T16:41:27;5.32;;;1.67;;
49820;SDS011;36893;52.520;13.450;2022-09-12T16:51:32;4.23;;;2.07;;
49820;SDS011;36893;52.520;13.450;2022-09-12T17:01:36;6.47;;;1.92;;
49820;SDS011;36893;52.520;13.450;2022-09-12T17:11:37;5.07;;;2.38;;
49820;SDS011;36893;52.520;13.450;2022-09-12T17:21:38;7.80;;;2.03;;
49820;SDS011;36893;52.520;13.450;2022-09-12T17:31:39;6.73;;;2.03;;
49820;SDS011;36893;52.520;13.450;2022-09-12T17:41:41;8.07;;;2.28;;
49820;SDS011;36893;52.520;13.450;2022-09-12T17:51:42;7.78;;;1.70;;
49820;SDS011;36893;52.520;13.450;2022-09-12T18:01:43;4.38;;;1.92;;
49820;SDS011;36893;52.520;13.450;2022-09-12T18:12:02;4.25;;;1.77;;
49820;SDS011;36893;52.520;13.450;2022-09-12T18:22:04;4.33;;;2.00;;
49820;SDS011;36893;52.520;13.450;2022-09-12T18:32:05;6.35;;;1.80;;
49820;SDS011;36893;52.520;13.450;2022-09-12T18:42:06;5.33;;;2.00;;
49820;SDS011;36893;52.520;13.450;2022-09-12T18:52:06;5.47;;;2.30;;
49820;SDS011;36893;52.520;13.450;2022-09-12T19:02:10;4.18;;;1.65;;
49820;SDS011;36893;52.520;13.450;2022-09-12T19:12:15;2.35;;;1.27;;
49820;SDS011;36893;52.520;13.450;2022-09-12T19:22:15;11.73;;;1.60;;
49820;SDS011;36893;52.520;13.450;2022-09-12T19:32:16;6.37;;;2.03;;
49820;SDS011;36893;52.520;13.450;2022-09-12T19:42:17;5.67;;;1.93;;
49820;SDS011;36893;52.520;13.450;2022-09-12T19:52:17;2.30;;;1.17;;
49820;SDS011;36893;52.520;13.450;2022-09-12T20:02:18;4.72;;;1.90;;
49820;SDS011;36893;52.520;13.450;2022-09-12T20:12:19;5.20;;;1.87;;
49820;SDS011;36893;52.520;13.450;2022-09-12T20:22:20;4.30;;;2.10;;
49820;SDS011;36893;52.520;13.450;2022-09-12T20:32:21;3.00;;;1.30;;
49820;SDS011;36893;52.520;13.450;2022-09-12T20:42:21;3.95;;;1.92;;
49820;SDS011;36893;52.520;13.450;2022-09-12T20:52:22;3.63;;;1.70;;
49820;SDS011;36893;52.520;13.450;2022-09-12T21:02:23;3.45;;;1.55;;
49820;SDS011;36893;52.520;13.450;2022-09-12T21:12:25;3.67;;;1.80;;
49820;SDS011;36893;52.520;13.450;2022-09-12T21:22:27;3.97;;;1.77;;
49820;SDS011;36893;52.520;13.450;2022-09-12T21:32:27;3.90;;;1.60;;
49820;SDS011;36893;52.520;13.450;2022-09-12T21:42:33;3.22;;;1.52;;
49820;SDS011;36893;52.520;13.450;2022-09-12T21:52:34;3.77;;;1.33;;
49820;SDS011;36893;52.520;13.450;2022-09-12T22:02:35;3.25;;;1.55;;
49820;SDS011;36893;52.520;13.450;2022-09-12T22:12:35;3.37;;;1.60;;
49820;SDS011;36893;52.520;13.450;2022-09-12T22:22:36;2.72;;;1.33;;
49820;SDS011;36893;52.520;13.450;2022-09-12T22:32:56;3.47;;;1.38;;
49820;SDS011;36893;52.520;13.450;2022-09-12T22:42:57;2.78;;;1.48;;
49820;SDS011;36893;52.520;13.450;2022-09-12T22:52:57;3.80;;;1.67;;
49820;SDS011;36893;52.520;13.450;2022-09-12T23:02:58;4.00;;;1.63;;
49820;SDS011;36893;52.520;13.450;2022-09-12T23:12:58;4.27;;;1.83;;
49820;SDS011;36893;52.520;13.450;2022-09-12T23:22:59;3.95;;;1.80;;
49820;SDS011;36893;52.520;13.450;2022-09-12T23:33:00;2.37;;;1.27;;
49820;SDS011;36893;52.520;13.450;2022-09-12T23:43:01;1.73;;;1.00;;
49820;SDS011;36893;52.520;13.450;2022-09-12T23:53:01;2.40;;;1.20;;
